PWSweather.com
Personal Weather Stations
Station Observations
WATERF01
WaterfordIE

WaterfordIE

Lat: 52.2412507, Lon: -7.1414691

Elevation: 65

Station Type: Davis Vantage Vue

Latest ConditionsUpdated 2:30:01 PM GMT Saturday, Apr 19, 2014
Currently Today's Max Today's Min Today's Average
Temperature 54.7°F12.6°C 56.0°F13.3°C 36.2°F2.3°C 45.8°F7.7°C
Dew Point 43.2°F6.2°C 47.3°F8.5°C 34.6°F1.4°C 41.0°F5.0°C
Winds 7.8 mph S12.6 kmh S 9.8 mph SE15.8 kmh SE - 3.4 mph 5.5 kmh
Wind Gusts 8.3 mph13.4 kmh 13.0 mph20.9 kmh - -
Humidity 65% 95% 62% 84%
Pressure 30.00 in1015.9 mb 30.10 in1019.3 mb 30.00 in1015.9 mb -
Hour Temp Dew Point Humidity Winds Wind Gusts Pressure Precip Precip Rate Daily Precip Total
02:30 PM 54.7°F12.6°C 43.2°F6.2°C 65% 7.8 mph S12.6 kmh S 8.3 mph13.4 kmh 30.00 in1015.9 mb 0.00 in0.0 mm 0.00 in/hr0.0 mm/hr 0.00 in0.0 mm
02:20 PM 54.6°F12.6°C 42.3°F5.7°C 63% 8.3 mph SE13.4 kmh SE 11.5 mph18.5 kmh 30.01 in1016.3 mb 0.00 in0.0 mm 0.00 in/hr0.0 mm/hr 0.00 in0.0 mm
02:10 PM 55.0°F12.8°C 42.2°F5.7°C 62% 9.3 mph SE15.0 kmh SE 10.6 mph17.1 kmh 30.01 in1016.3 mb 0.00 in0.0 mm 0.00 in/hr0.0 mm/hr 0.00 in0.0 mm
02:00 PM 55.0°F12.8°C 42.6°F5.9°C 63% 8.1 mph SSW13.0 kmh SSW 12.3 mph19.8 kmh 30.01 in1016.3 mb 0.00 in0.0 mm 0.00 in/hr0.0 mm/hr 0.00 in0.0 mm
01:50 PM 55.4°F13.0°C 44.2°F6.8°C 66% 7.1 mph S11.4 kmh S 9.8 mph15.8 kmh 30.01 in1016.3 mb 0.00 in0.0 mm 0.00 in/hr0.0 mm/hr 0.00 in0.0 mm
01:40 PM 55.6°F13.1°C 45.2°F7.3°C 68% 8.1 mph ESE13.0 kmh ESE 10.7 mph17.2 kmh 30.02 in1016.6 mb 0.00 in0.0 mm 0.00 in/hr0.0 mm/hr 0.00 in0.0 mm
01:30 PM 56.0°F13.3°C 44.0°F6.7°C 64% 8.2 mph SW13.2 kmh SW 10.9 mph17.5 kmh 30.02 in1016.6 mb 0.00 in0.0 mm 0.00 in/hr0.0 mm/hr 0.00 in0.0 mm
01:20 PM 55.9°F13.3°C 44.3°F6.8°C 65% 8.8 mph WSW14.2 kmh WSW 11.6 mph18.7 kmh 30.02 in1016.6 mb 0.00 in0.0 mm 0.00 in/hr0.0 mm/hr 0.00 in0.0 mm
01:10 PM 55.7°F13.2°C 43.7°F6.5°C 64% 9.1 mph SSE14.6 kmh SSE 10.8 mph17.4 kmh 30.02 in1016.6 mb 0.00 in0.0 mm 0.00 in/hr0.0 mm/hr 0.00 in0.0 mm
01:00 PM 55.7°F13.2°C 44.1°F6.7°C 65% 7.9 mph SSE12.7 kmh SSE 9.4 mph15.1 kmh 30.02 in1016.6 mb 0.00 in0.0 mm 0.00 in/hr0.0 mm/hr 0.00 in0.0 mm
12:50 PM 55.3°F12.9°C 46.0°F7.8°C 71% 7.0 mph ESE11.3 kmh ESE 13.0 mph20.9 kmh 30.02 in1016.6 mb 0.00 in0.0 mm 0.00 in/hr0.0 mm/hr 0.00 in0.0 mm
12:40 PM 55.0°F12.8°C 44.2°F6.8°C 67% 6.3 mph SE10.1 kmh SE 7.8 mph12.6 kmh 30.02 in1016.6 mb 0.00 in0.0 mm 0.00 in/hr0.0 mm/hr 0.00 in0.0 mm
12:30 PM 55.0°F12.8°C 45.8°F7.7°C 71% 6.4 mph SSE10.3 kmh SSE 9.3 mph15.0 kmh 30.02 in1016.6 mb 0.00 in0.0 mm 0.00 in/hr0.0 mm/hr 0.00 in0.0 mm
12:20 PM 55.1°F12.8°C 46.2°F7.9°C 72% 7.7 mph SE12.4 kmh SE 11.3 mph18.2 kmh 30.02 in1016.6 mb 0.00 in0.0 mm 0.00 in/hr0.0 mm/hr 0.00 in0.0 mm
12:10 PM 54.6°F12.6°C 45.7°F7.6°C 72% 8.5 mph SE13.7 kmh SE 12.3 mph19.8 kmh 30.02 in1016.6 mb 0.00 in0.0 mm 0.00 in/hr0.0 mm/hr 0.00 in0.0 mm
12:00 PM 54.5°F12.5°C 46.0°F7.8°C 73% 9.3 mph SSE15.0 kmh SSE 10.7 mph17.2 kmh 30.03 in1016.9 mb 0.00 in0.0 mm 0.00 in/hr0.0 mm/hr 0.00 in0.0 mm
11:50 AM 54.7°F12.6°C 45.5°F7.5°C 71% 9.8 mph SE15.8 kmh SE 11.2 mph18.0 kmh 30.03 in1016.9 mb 0.00 in0.0 mm 0.00 in/hr0.0 mm/hr 0.00 in0.0 mm
11:40 AM 54.6°F12.6°C 46.2°F7.9°C 73% 8.3 mph SE13.4 kmh SE 10.5 mph16.9 kmh 30.03 in1016.9 mb 0.00 in0.0 mm 0.00 in/hr0.0 mm/hr 0.00 in0.0 mm
11:30 AM 55.1°F12.8°C 47.3°F8.5°C 75% 7.5 mph SE12.1 kmh SE 10.7 mph17.2 kmh 30.03 in1016.9 mb 0.00 in0.0 mm 0.00 in/hr0.0 mm/hr 0.00 in0.0 mm
11:20 AM 54.8°F12.7°C 47.0°F8.3°C 75% 6.5 mph SE10.5 kmh SE 8.7 mph14.0 kmh 30.03 in1016.9 mb 0.00 in0.0 mm 0.00 in/hr0.0 mm/hr 0.00 in0.0 mm
11:10 AM 54.4°F12.4°C 47.0°F8.3°C 76% 6.4 mph SE10.3 kmh SE 8.9 mph14.3 kmh 30.03 in1016.9 mb 0.00 in0.0 mm 0.00 in/hr0.0 mm/hr 0.00 in0.0 mm
11:00 AM 54.8°F12.7°C 47.0°F8.3°C 75% 6.4 mph E10.3 kmh E 7.8 mph12.6 kmh 30.03 in1016.9 mb 0.00 in0.0 mm 0.00 in/hr0.0 mm/hr 0.00 in0.0 mm
10:50 AM 54.1°F12.3°C 47.1°F8.4°C 77% 7.5 mph SE12.1 kmh SE 9.7 mph15.6 kmh 30.04 in1017.3 mb 0.00 in0.0 mm 0.00 in/hr0.0 mm/hr 0.00 in0.0 mm
10:40 AM 54.1°F12.3°C 46.7°F8.2°C 76% 9.0 mph SE14.5 kmh SE 10.8 mph17.4 kmh 30.03 in1016.9 mb 0.00 in0.0 mm 0.00 in/hr0.0 mm/hr 0.00 in0.0 mm
10:30 AM 53.9°F12.2°C 46.5°F8.1°C 76% 5.3 mph ESE8.5 kmh ESE 8.3 mph13.4 kmh 30.03 in1016.9 mb 0.00 in0.0 mm 0.00 in/hr0.0 mm/hr 0.00 in0.0 mm
10:20 AM 53.7°F12.1°C 46.6°F8.1°C 77% 8.2 mph SE13.2 kmh SE 9.4 mph15.1 kmh 30.03 in1016.9 mb 0.00 in0.0 mm 0.00 in/hr0.0 mm/hr 0.00 in0.0 mm
10:10 AM 53.8°F12.1°C 46.8°F8.2°C 77% 4.8 mph ESE7.7 kmh ESE 10.9 mph17.5 kmh 30.04 in1017.3 mb 0.00 in0.0 mm 0.00 in/hr0.0 mm/hr 0.00 in0.0 mm
10:00 AM 53.2°F11.8°C 46.9°F8.3°C 79% 5.7 mph SE9.2 kmh SE 8.9 mph14.3 kmh 30.03 in1016.9 mb 0.00 in0.0 mm 0.00 in/hr0.0 mm/hr 0.00 in0.0 mm
09:50 AM 53.3°F11.8°C 47.3°F8.5°C 80% 5.0 mph E8.0 kmh E 9.7 mph15.6 kmh 30.04 in1017.3 mb 0.00 in0.0 mm 0.00 in/hr0.0 mm/hr 0.00 in0.0 mm
09:40 AM 52.7°F11.5°C 46.7°F8.2°C 80% 3.1 mph E5.0 kmh E 5.6 mph9.0 kmh 30.03 in1016.9 mb 0.00 in0.0 mm 0.00 in/hr0.0 mm/hr 0.00 in0.0 mm
09:30 AM 52.5°F11.4°C 46.5°F8.1°C 80% 4.6 mph E7.4 kmh E 6.8 mph10.9 kmh 30.03 in1016.9 mb 0.00 in0.0 mm 0.00 in/hr0.0 mm/hr 0.00 in0.0 mm
09:20 AM 52.0°F11.1°C 46.7°F8.2°C 82% 3.2 mph NE5.1 kmh NE 4.8 mph7.7 kmh 30.03 in1016.9 mb 0.00 in0.0 mm 0.00 in/hr0.0 mm/hr 0.00 in0.0 mm
09:10 AM 51.3°F10.7°C 46.0°F7.8°C 82% 2.5 mph ENE4.0 kmh ENE 6.0 mph9.7 kmh 30.03 in1016.9 mb 0.00 in0.0 mm 0.00 in/hr0.0 mm/hr 0.00 in0.0 mm
09:00 AM 50.4°F10.2°C 45.1°F7.3°C 82% 4.3 mph SE6.9 kmh SE 6.8 mph10.9 kmh 30.03 in1016.9 mb 0.00 in0.0 mm 0.00 in/hr0.0 mm/hr 0.00 in0.0 mm
08:50 AM 50.5°F10.3°C 45.2°F7.3°C 82% 3.5 mph E5.6 kmh E 4.8 mph7.7 kmh 30.03 in1016.9 mb 0.00 in0.0 mm 0.00 in/hr0.0 mm/hr 0.00 in0.0 mm
08:40 AM 50.2°F10.1°C 45.2°F7.3°C 83% 4.2 mph ESE6.8 kmh ESE 5.9 mph9.5 kmh 30.03 in1016.9 mb 0.00 in0.0 mm 0.00 in/hr0.0 mm/hr 0.00 in0.0 mm
08:30 AM 50.4°F10.2°C 45.4°F7.4°C 83% 4.4 mph ESE7.1 kmh ESE 7.0 mph11.3 kmh 30.03 in1016.9 mb 0.00 in0.0 mm 0.00 in/hr0.0 mm/hr 0.00 in0.0 mm
08:20 AM 49.5°F9.7°C 44.9°F7.2°C 84% 1.1 mph E1.8 kmh E 2.9 mph4.7 kmh 30.04 in1017.3 mb 0.00 in0.0 mm 0.00 in/hr0.0 mm/hr 0.00 in0.0 mm
08:10 AM 48.1°F8.9°C 43.5°F6.4°C 84% 1.6 mph ENE2.6 kmh ENE 3.0 mph4.8 kmh 30.04 in1017.3 mb 0.00 in0.0 mm 0.00 in/hr0.0 mm/hr 0.00 in0.0 mm
08:00 AM 47.6°F8.7°C 43.3°F6.3°C 85% 3.4 mph E5.5 kmh E 3.9 mph6.3 kmh 30.04 in1017.3 mb 0.00 in0.0 mm 0.00 in/hr0.0 mm/hr 0.00 in0.0 mm
07:50 AM 46.2°F7.9°C 42.8°F6.0°C 88% 0.8 mph E1.3 kmh E 2.0 mph3.2 kmh 30.04 in1017.3 mb 0.00 in0.0 mm 0.00 in/hr0.0 mm/hr 0.00 in0.0 mm
07:40 AM 44.3°F6.8°C 41.3°F5.2°C 89% 0.7 mph NW1.1 kmh NW 1.0 mph1.6 kmh 30.05 in1017.6 mb 0.00 in0.0 mm 0.00 in/hr0.0 mm/hr 0.00 in0.0 mm
07:30 AM 43.0°F6.1°C 40.5°F4.7°C 91% 1.2 mph WNW1.9 kmh WNW 1.0 mph1.6 kmh 30.05 in1017.6 mb 0.00 in0.0 mm 0.00 in/hr0.0 mm/hr 0.00 in0.0 mm
07:20 AM 41.6°F5.3°C 39.1°F3.9°C 91% 1.4 mph NW2.3 kmh NW 2.4 mph3.9 kmh 30.05 in1017.6 mb 0.00 in0.0 mm 0.00 in/hr0.0 mm/hr 0.00 in0.0 mm
07:10 AM 41.0°F5.0°C 38.9°F3.8°C 92% 2.6 mph NW4.2 kmh NW 4.0 mph6.4 kmh 30.05 in1017.6 mb 0.00 in0.0 mm 0.00 in/hr0.0 mm/hr 0.00 in0.0 mm
07:00 AM 40.6°F4.8°C 38.5°F3.6°C 92% 1.7 mph W2.7 kmh W 2.9 mph4.7 kmh 30.05 in1017.6 mb 0.00 in0.0 mm 0.00 in/hr0.0 mm/hr 0.00 in0.0 mm
06:50 AM 39.9°F4.4°C 38.1°F3.4°C 93% 1.9 mph NW3.1 kmh NW 3.0 mph4.8 kmh 30.05 in1017.6 mb 0.00 in0.0 mm 0.00 in/hr0.0 mm/hr 0.00 in0.0 mm
06:40 AM 39.2°F4.0°C 37.6°F3.1°C 94% 1.9 mph NW3.1 kmh NW 2.0 mph3.2 kmh 30.05 in1017.6 mb 0.00 in0.0 mm 0.00 in/hr0.0 mm/hr 0.00 in0.0 mm
06:30 AM 38.2°F3.4°C 36.6°F2.6°C 94% 0.7 mph WSW1.1 kmh WSW 1.7 mph2.7 kmh 30.05 in1017.6 mb 0.00 in0.0 mm 0.00 in/hr0.0 mm/hr 0.00 in0.0 mm
06:20 AM 38.0°F3.3°C 36.7°F2.6°C 95% 0.6 mph NW1.0 kmh NW 1.0 mph1.6 kmh 30.05 in1017.6 mb 0.00 in0.0 mm 0.00 in/hr0.0 mm/hr 0.00 in0.0 mm
06:10 AM 37.3°F2.9°C 36.0°F2.2°C 95% 0.4 mph NW0.6 kmh NW 2.0 mph3.2 kmh 30.05 in1017.6 mb 0.00 in0.0 mm 0.00 in/hr0.0 mm/hr 0.00 in0.0 mm
06:00 AM 36.2°F2.3°C 34.7°F1.5°C 94% 2.4 mph NW3.9 kmh NW 3.0 mph4.8 kmh 30.05 in1017.6 mb 0.00 in0.0 mm 0.00 in/hr0.0 mm/hr 0.00 in0.0 mm
05:50 AM 36.2°F2.3°C 34.6°F1.4°C 94% 2.4 mph W3.9 kmh W 3.7 mph6.0 kmh 30.05 in1017.6 mb 0.00 in0.0 mm 0.00 in/hr0.0 mm/hr 0.00 in0.0 mm
05:40 AM 36.2°F2.3°C 34.7°F1.5°C 94% 1.3 mph WNW2.1 kmh WNW 2.0 mph3.2 kmh 30.05 in1017.6 mb 0.00 in0.0 mm 0.00 in/hr0.0 mm/hr 0.00 in0.0 mm
05:30 AM 36.8°F2.7°C 35.5°F1.9°C 95% Calm Calm -- 30.05 in1017.6 mb 0.00 in0.0 mm 0.00 in/hr0.0 mm/hr 0.00 in0.0 mm
05:20 AM 36.9°F2.7°C 35.6°F2.0°C 95% Calm Calm -- 30.05 in1017.6 mb 0.00 in0.0 mm 0.00 in/hr0.0 mm/hr 0.00 in0.0 mm
05:10 AM 37.1°F2.8°C 35.8°F2.1°C 95% Calm Calm -- 30.04 in1017.3 mb 0.00 in0.0 mm 0.00 in/hr0.0 mm/hr 0.00 in0.0 mm
05:00 AM 36.8°F2.7°C 35.5°F1.9°C 95% 0.7 mph N1.1 kmh N 2.0 mph3.2 kmh 30.05 in1017.6 mb 0.00 in0.0 mm 0.00 in/hr0.0 mm/hr 0.00 in0.0 mm
04:50 AM 36.4°F2.4°C 34.9°F1.6°C 94% 1.2 mph WNW1.9 kmh WNW 2.0 mph3.2 kmh 30.05 in1017.6 mb 0.00 in0.0 mm 0.00 in/hr0.0 mm/hr 0.00 in0.0 mm
04:40 AM 36.2°F2.3°C 34.6°F1.4°C 94% 0.9 mph W1.4 kmh W 2.0 mph3.2 kmh 30.05 in1017.6 mb 0.00 in0.0 mm 0.00 in/hr0.0 mm/hr 0.00 in0.0 mm
04:30 AM 36.8°F2.7°C 35.0°F1.7°C 93% 1.3 mph W2.1 kmh W 2.0 mph3.2 kmh 30.05 in1017.6 mb 0.00 in0.0 mm 0.00 in/hr0.0 mm/hr 0.00 in0.0 mm
04:20 AM 37.4°F3.0°C 35.9°F2.2°C 94% 2.0 mph NW3.2 kmh NW 2.9 mph4.7 kmh 30.05 in1017.6 mb 0.00 in0.0 mm 0.00 in/hr0.0 mm/hr 0.00 in0.0 mm
04:10 AM 37.6°F3.1°C 36.0°F2.2°C 94% 0.6 mph W1.0 kmh W 1.0 mph1.6 kmh 30.05 in1017.6 mb 0.00 in0.0 mm 0.00 in/hr0.0 mm/hr 0.00 in0.0 mm
04:00 AM 37.6°F3.1°C 36.0°F2.2°C 94% 0.7 mph W1.1 kmh W 1.0 mph1.6 kmh 30.05 in1017.6 mb 0.00 in0.0 mm 0.00 in/hr0.0 mm/hr 0.00 in0.0 mm
03:50 AM 37.9°F3.3°C 36.1°F2.3°C 93% Calm Calm 1.0 mph1.6 kmh 30.05 in1017.6 mb 0.00 in0.0 mm 0.00 in/hr0.0 mm/hr 0.00 in0.0 mm
03:40 AM 38.1°F3.4°C 36.6°F2.6°C 94% 0.4 mph W0.6 kmh W 1.0 mph1.6 kmh 30.05 in1017.6 mb 0.00 in0.0 mm 0.00 in/hr0.0 mm/hr 0.00 in0.0 mm
03:30 AM 38.1°F3.4°C 36.5°F2.5°C 94% 0.4 mph W0.6 kmh W 1.0 mph1.6 kmh 30.06 in1017.9 mb 0.00 in0.0 mm 0.00 in/hr0.0 mm/hr 0.00 in0.0 mm
03:20 AM 37.9°F3.3°C 36.1°F2.3°C 93% 0.1 mph W0.2 kmh W 1.0 mph1.6 kmh 30.06 in1017.9 mb 0.00 in0.0 mm 0.00 in/hr0.0 mm/hr 0.00 in0.0 mm
03:10 AM 38.4°F3.6°C 36.6°F2.6°C 93% 1.5 mph W2.4 kmh W 2.1 mph3.4 kmh 30.06 in1017.9 mb 0.00 in0.0 mm 0.00 in/hr0.0 mm/hr 0.00 in0.0 mm
03:00 AM 38.5°F3.6°C 36.6°F2.6°C 93% 0.8 mph W1.3 kmh W 2.3 mph3.7 kmh 30.06 in1017.9 mb 0.00 in0.0 mm 0.00 in/hr0.0 mm/hr 0.00 in0.0 mm
02:50 AM 38.5°F3.6°C 36.4°F2.4°C 92% Calm Calm -- 30.06 in1017.9 mb 0.00 in0.0 mm 0.00 in/hr0.0 mm/hr 0.00 in0.0 mm
02:40 AM 39.1°F3.9°C 37.2°F2.9°C 93% Calm Calm -- 30.07 in1018.3 mb 0.00 in0.0 mm 0.00 in/hr0.0 mm/hr 0.00 in0.0 mm
02:30 AM 39.7°F4.3°C 37.9°F3.3°C 93% Calm Calm -- 30.07 in1018.3 mb 0.00 in0.0 mm 0.00 in/hr0.0 mm/hr 0.00 in0.0 mm
02:20 AM 40.4°F4.7°C 38.8°F3.8°C 94% 0.3 mph NW0.5 kmh NW 0.9 mph1.4 kmh 30.07 in1018.3 mb 0.00 in0.0 mm 0.00 in/hr0.0 mm/hr 0.00 in0.0 mm
02:10 AM 40.1°F4.5°C 38.5°F3.6°C 94% 0.5 mph SW0.8 kmh SW 0.9 mph1.4 kmh 30.08 in1018.6 mb 0.00 in0.0 mm 0.00 in/hr0.0 mm/hr 0.00 in0.0 mm
02:00 AM 39.9°F4.4°C 38.0°F3.3°C 93% Calm Calm -- 30.08 in1018.6 mb 0.00 in0.0 mm 0.00 in/hr0.0 mm/hr 0.00 in0.0 mm
01:50 AM 39.7°F4.3°C 37.8°F3.2°C 93% 0.1 mph SW0.2 kmh SW 1.0 mph1.6 kmh 30.08 in1018.6 mb 0.00 in0.0 mm 0.00 in/hr0.0 mm/hr 0.00 in0.0 mm
01:40 AM 39.4°F4.1°C 37.5°F3.1°C 93% 0.8 mph SW1.3 kmh SW 1.6 mph2.6 kmh 30.09 in1019.0 mb 0.00 in0.0 mm 0.00 in/hr0.0 mm/hr 0.00 in0.0 mm
01:30 AM 39.5°F4.2°C 37.6°F3.1°C 93% Calm Calm -- 30.09 in1019.0 mb 0.00 in0.0 mm 0.00 in/hr0.0 mm/hr 0.00 in0.0 mm
01:20 AM 39.3°F4.1°C 37.2°F2.9°C 92% 0.6 mph S1.0 kmh S 1.0 mph1.6 kmh 30.09 in1019.0 mb 0.00 in0.0 mm 0.00 in/hr0.0 mm/hr 0.00 in0.0 mm
01:10 AM 40.5°F4.7°C 38.3°F3.5°C 92% 1.4 mph SSW2.3 kmh SSW 2.0 mph3.2 kmh 30.09 in1019.0 mb 0.00 in0.0 mm 0.00 in/hr0.0 mm/hr 0.00 in0.0 mm
01:00 AM 40.7°F4.8°C 38.6°F3.7°C 92% 1.0 mph W1.6 kmh W 2.0 mph3.2 kmh 30.09 in1019.0 mb 0.00 in0.0 mm 0.00 in/hr0.0 mm/hr 0.00 in0.0 mm
12:50 AM 40.9°F4.9°C 38.5°F3.6°C 91% 1.3 mph WSW2.1 kmh WSW 2.0 mph3.2 kmh 30.10 in1019.3 mb 0.00 in0.0 mm 0.00 in/hr0.0 mm/hr 0.00 in0.0 mm
12:40 AM 41.4°F5.2°C 38.9°F3.8°C 91% 0.5 mph W0.8 kmh W 1.0 mph1.6 kmh 30.10 in1019.3 mb 0.00 in0.0 mm 0.00 in/hr0.0 mm/hr 0.00 in0.0 mm
12:30 AM 41.9°F5.5°C 39.2°F4.0°C 90% 0.8 mph W1.3 kmh W 2.0 mph3.2 kmh 30.10 in1019.3 mb 0.00 in0.0 mm 0.00 in/hr0.0 mm/hr 0.00 in0.0 mm
12:20 AM 43.0°F6.1°C 40.3°F4.6°C 90% 1.6 mph W2.6 kmh W 3.0 mph4.8 kmh 30.10 in1019.3 mb 0.00 in0.0 mm 0.00 in/hr0.0 mm/hr 0.00 in0.0 mm
12:10 AM 43.4°F6.3°C 40.9°F4.9°C 91% 0.6 mph WSW1.0 kmh WSW 1.0 mph1.6 kmh 30.10 in1019.3 mb 0.00 in0.0 mm 0.00 in/hr0.0 mm/hr 0.00 in0.0 mm
12:00 AM 43.1°F6.2°C 40.6°F4.8°C 91% 1.0 mph NNW1.6 kmh NNW 2.0 mph3.2 kmh 30.10 in1019.3 mb 0.00 in0.0 mm 0.00 in/hr0.0 mm/hr 0.00 in0.0 mm